createdAt,value
2019-03-08T00:00:55.603Z,93.00
2019-03-08T00:03:23.119Z,93.60
2019-03-08T00:05:53.207Z,93.20
2019-03-08T00:08:20.720Z,93.40
2019-03-08T00:10:50.610Z,93.30
2019-03-08T00:13:18.887Z,93.20
2019-03-08T00:15:46.384Z,93.60
2019-03-08T00:18:15.588Z,93.60
2019-03-08T00:20:43.447Z,93.30
2019-03-08T00:23:12.338Z,93.40
2019-03-08T00:25:39.832Z,93.30
2019-03-08T00:28:07.641Z,93.20
2019-03-08T00:30:35.148Z,93.30
2019-03-08T00:33:03.066Z,93.20
2019-03-08T00:35:30.914Z,93.10
2019-03-08T00:38:01.260Z,93.20
2019-03-08T00:40:28.698Z,93.40
2019-03-08T00:42:56.193Z,93.20
2019-03-08T00:45:24.096Z,93.40
2019-03-08T00:47:53.940Z,93.20
2019-03-08T00:50:21.442Z,93.10
2019-03-08T00:52:49.148Z,93.10
2019-03-08T00:55:18.901Z,93.10
2019-03-08T00:57:46.389Z,93.20
2019-03-08T01:00:15.381Z,93.10
2019-03-08T01:02:45.174Z,92.80
2019-03-08T01:05:14.034Z,92.70
2019-03-08T01:07:41.806Z,92.70
2019-03-08T01:10:11.471Z,92.60
2019-03-08T01:12:38.953Z,92.50
2019-03-08T01:15:07.501Z,92.70
2019-03-08T01:17:35.612Z,92.80
2019-03-08T01:20:03.667Z,92.50
2019-03-08T01:22:31.497Z,92.60
2019-03-08T01:24:59.781Z,92.30
2019-03-08T01:27:27.488Z,92.30
2019-03-08T01:29:55.130Z,92.40
2019-03-08T01:32:22.684Z,92.30
2019-03-08T01:34:51.178Z,92.20
2019-03-08T01:37:20.462Z,92.20
2019-03-08T01:39:48.141Z,91.90
2019-03-08T01:42:17.958Z,92.00
2019-03-08T01:44:48.606Z,92.00
2019-03-08T01:47:16.037Z,91.90
2019-03-08T01:49:45.482Z,91.60
2019-03-08T01:52:12.994Z,91.80
2019-03-08T01:54:40.449Z,92.10
2019-03-08T01:57:07.913Z,92.00
2019-03-08T01:59:36.599Z,91.90
2019-03-08T02:02:03.984Z,91.80
2019-03-08T02:04:31.555Z,91.90
2019-03-08T02:07:00.485Z,91.80
2019-03-08T02:09:27.976Z,91.90
2019-03-08T02:11:55.722Z,91.90
2019-03-08T02:14:25.458Z,91.70
2019-03-08T02:16:52.949Z,92.10
2019-03-08T02:19:20.425Z,92.20
2019-03-08T02:21:47.913Z,92.20
2019-03-08T02:24:15.444Z,92.30
2019-03-08T02:26:43.572Z,92.30
2019-03-08T02:29:11.607Z,92.30
2019-03-08T02:31:39.100Z,92.00
2019-03-08T02:34:06.644Z,92.10
2019-03-08T02:36:34.131Z,92.00
2019-03-08T02:39:01.636Z,92.20
2019-03-08T02:41:31.397Z,92.50
2019-03-08T02:43:59.006Z,92.80
2019-03-08T02:46:26.687Z,92.40
2019-03-08T02:48:54.168Z,92.70
2019-03-08T02:51:22.050Z,92.40
2019-03-08T02:53:49.551Z,92.10
2019-03-08T02:56:22.301Z,92.40
2019-03-08T02:58:49.891Z,93.20
2019-03-08T03:01:17.571Z,93.50
2019-03-08T03:03:45.134Z,93.60
2019-03-08T03:06:12.669Z,93.60
2019-03-08T03:08:40.152Z,93.90
2019-03-08T03:11:07.681Z,94.30
2019-03-08T03:13:36.718Z,94.40
2019-03-08T03:16:04.407Z,94.10
2019-03-08T03:18:31.940Z,94.40
2019-03-08T03:20:59.627Z,94.20
2019-03-08T03:23:27.223Z,94.30
2019-03-08T03:25:56.124Z,94.30
2019-03-08T03:28:23.609Z,94.00
2019-03-08T03:30:51.436Z,94.10
2019-03-08T03:33:19.424Z,94.10
2019-03-08T03:35:47.020Z,94.30
2019-03-08T03:38:14.547Z,94.30
2019-03-08T03:40:42.082Z,94.30
2019-03-08T03:43:09.578Z,94.30
2019-03-08T03:45:37.079Z,94.10
2019-03-08T03:48:04.964Z,94.10
2019-03-08T03:50:32.649Z,93.90
2019-03-08T03:53:00.148Z,93.60
2019-03-08T03:55:27.647Z,94.00
2019-03-08T03:57:55.224Z,93.80
2019-03-08T04:00:23.327Z,94.00
2019-03-08T04:02:50.912Z,93.80
2019-03-08T04:05:18.618Z,93.60
2019-03-08T04:07:46.153Z,93.80
2019-03-08T04:10:13.591Z,93.90
2019-03-08T04:12:41.111Z,93.60
2019-03-08T04:15:10.936Z,93.30
2019-03-08T04:17:38.747Z,93.60
2019-03-08T04:20:07.936Z,93.60
2019-03-08T04:22:35.522Z,93.60
2019-03-08T04:25:03.023Z,93.60
2019-03-08T04:27:30.575Z,93.50
2019-03-08T04:29:58.100Z,93.40
2019-03-08T04:32:25.580Z,93.60
2019-03-08T04:34:55.096Z,93.40
2019-03-08T04:37:22.580Z,93.40
2019-03-08T04:39:50.062Z,93.30
2019-03-08T04:42:17.614Z,93.30
2019-03-08T04:44:45.063Z,93.20
2019-03-08T04:47:12.859Z,93.30
2019-03-08T04:49:40.393Z,93.30
2019-03-08T04:52:08.404Z,93.00
2019-03-08T04:54:38.364Z,92.80
2019-03-08T04:57:05.964Z,93.20
2019-03-08T04:59:34.300Z,93.20
2019-03-08T05:02:01.794Z,93.50
2019-03-08T05:04:29.388Z,93.20
2019-03-08T05:06:58.531Z,93.20
2019-03-08T05:09:26.091Z,93.20
2019-03-08T05:11:53.817Z,93.20
2019-03-08T05:14:21.415Z,93.20
2019-03-08T05:16:49.076Z,93.20
2019-03-08T05:19:16.755Z,93.40
2019-03-08T05:21:44.293Z,93.40
2019-03-08T05:24:13.201Z,93.30
2019-03-08T05:26:40.989Z,93.40
2019-03-08T05:29:08.483Z,93.10
2019-03-08T05:31:36.245Z,93.30
2019-03-08T05:34:03.758Z,93.30
2019-03-08T05:36:31.312Z,93.50
2019-03-08T05:38:59.462Z,93.20
2019-03-08T05:41:27.794Z,93.20
2019-03-08T05:43:55.297Z,93.60
2019-03-08T05:46:22.869Z,93.40
2019-03-08T05:48:50.359Z,93.60
2019-03-08T05:51:18.026Z,93.50
2019-03-08T05:53:47.865Z,93.60
2019-03-08T05:56:15.363Z,93.30
2019-03-08T05:58:42.840Z,93.40
2019-03-08T06:01:10.468Z,93.50
2019-03-08T06:03:37.962Z,93.60
2019-03-08T06:06:06.100Z,93.40
2019-03-08T06:08:33.659Z,93.70
2019-03-08T06:11:01.448Z,93.60
2019-03-08T06:13:28.996Z,93.80
2019-03-08T06:15:56.499Z,93.40
2019-03-08T06:18:24.127Z,93.30
2019-03-08T06:20:51.641Z,93.40
2019-03-08T06:23:19.319Z,93.40
2019-03-08T06:25:49.638Z,93.00
2019-03-08T06:28:17.431Z,93.70
2019-03-08T06:30:44.979Z,93.80
2019-03-08T06:33:13.091Z,94.00
2019-03-08T06:35:40.696Z,93.70
2019-03-08T06:38:08.207Z,94.10
2019-03-08T06:40:36.258Z,94.20
2019-03-08T06:43:04.901Z,94.10
2019-03-08T06:45:32.352Z,94.00
2019-03-08T06:48:00.231Z,93.90
2019-03-08T06:50:27.665Z,93.70
2019-03-08T06:52:55.684Z,93.50
2019-03-08T06:55:23.182Z,93.60
2019-03-08T06:57:58.216Z,93.30
2019-03-08T07:00:31.861Z,93.40
2019-03-08T07:02:59.298Z,93.60
2019-03-08T07:05:26.881Z,93.60
2019-03-08T07:07:54.332Z,93.60
2019-03-08T07:10:21.749Z,93.60
2019-03-08T07:12:49.264Z,93.40
2019-03-08T07:15:17.103Z,93.20
2019-03-08T07:17:44.559Z,93.60
2019-03-08T07:20:24.238Z,93.40
2019-03-08T07:23:03.536Z,93.40
2019-03-08T07:26:08.970Z,93.10
2019-03-08T07:29:07.567Z,93.40
2019-03-08T07:32:12.601Z,93.30
2019-03-08T07:34:59.547Z,93.00
2019-03-08T07:37:33.873Z,93.10
2019-03-08T07:40:17.402Z,92.80
2019-03-08T07:43:07.337Z,92.30
2019-03-08T07:45:46.813Z,92.20
2019-03-08T07:48:22.108Z,91.90
2019-03-08T07:51:24.022Z,92.00
2019-03-08T07:53:57.948Z,91.90
2019-03-08T07:56:48.020Z,91.40
2019-03-08T07:59:38.841Z,91.40
2019-03-08T08:02:12.729Z,91.20
2019-03-08T08:05:02.476Z,90.30
2019-03-08T08:07:58.441Z,91.20
2019-03-08T08:10:57.788Z,90.50
2019-03-08T08:13:47.568Z,89.00
2019-03-08T08:16:34.549Z,90.20
2019-03-08T08:19:27.519Z,90.00
2019-03-08T08:22:20.700Z,89.10
2019-03-08T08:24:54.239Z,89.20
2019-03-08T08:27:27.015Z,87.90
2019-03-08T08:30:23.005Z,88.50
2019-03-08T08:33:28.064Z,86.90
2019-03-08T08:36:15.244Z,86.60
2019-03-08T08:38:51.264Z,86.80
2019-03-08T08:41:37.021Z,85.30
2019-03-08T08:44:32.828Z,85.20
2019-03-08T08:47:22.486Z,84.30
2019-03-08T08:50:05.811Z,84.80
2019-03-08T08:52:52.766Z,85.20
2019-03-08T08:55:36.348Z,83.10
2019-03-08T08:58:35.579Z,83.20
2019-03-08T09:01:25.059Z,82.60
2019-03-08T09:04:20.940Z,80.30
2019-03-08T09:07:10.658Z,80.70
2019-03-08T09:09:58.957Z,79.80
2019-03-08T09:12:45.900Z,80.60
2019-03-08T09:15:23.794Z,81.50
2019-03-08T09:17:58.073Z,82.00
2019-03-08T09:20:43.406Z,81.90
2019-03-08T09:23:26.511Z,81.60
2019-03-08T09:26:04.839Z,79.50
2019-03-08T09:28:38.901Z,79.20
2019-03-08T09:31:12.403Z,79.50
2019-03-08T09:33:55.237Z,80.90
2019-03-08T09:36:54.607Z,79.70
2019-03-08T09:39:43.695Z,77.50
2019-03-08T09:42:42.607Z,76.70
2019-03-08T09:45:27.449Z,77.70
2019-03-08T09:48:16.922Z,77.30
2019-03-08T09:51:06.570Z,75.60
2019-03-08T09:53:42.663Z,78.20
2019-03-08T09:56:38.702Z,75.30
2019-03-08T09:59:28.470Z,74.50
2019-03-08T10:02:07.041Z,77.90
2019-03-08T10:04:49.296Z,73.90
2019-03-08T10:07:27.088Z,71.90
2019-03-08T10:10:03.852Z,75.10
2019-03-08T10:12:49.433Z,74.40
2019-03-08T10:15:51.224Z,73.50
2019-03-08T10:18:40.128Z,72.50
2019-03-08T10:21:27.201Z,70.90
2019-03-08T10:24:16.714Z,72.70
2019-03-08T10:27:21.544Z,71.70
2019-03-08T10:30:14.173Z,68.90
2019-03-08T10:32:56.457Z,69.60
2019-03-08T10:35:58.792Z,69.50
2019-03-08T10:38:34.443Z,69.80
2019-03-08T10:41:13.707Z,70.80
2019-03-08T10:44:12.444Z,70.80
2019-03-08T10:47:00.121Z,69.80
2019-03-08T10:50:05.480Z,69.50
2019-03-08T10:52:37.025Z,68.30
2019-03-08T10:55:23.030Z,68.10
2019-03-08T10:58:00.408Z,67.30
2019-03-08T11:00:46.168Z,66.60
2019-03-08T11:03:27.061Z,66.90
2019-03-08T11:06:09.388Z,69.20
2019-03-08T11:08:43.089Z,65.40
2019-03-08T11:11:30.039Z,67.80
2019-03-08T11:14:16.424Z,68.20
2019-03-08T11:17:02.323Z,69.50
2019-03-08T11:19:42.848Z,68.20
2019-03-08T11:22:16.245Z,68.90
2019-03-08T11:24:51.786Z,69.20
2019-03-08T11:27:51.156Z,67.80
2019-03-08T11:30:36.772Z,70.30
2019-03-08T11:33:29.893Z,69.60
2019-03-08T11:36:09.485Z,69.30
2019-03-08T11:38:53.824Z,69.60
2019-03-08T11:41:35.153Z,69.40
2019-03-08T11:44:09.089Z,68.20
2019-03-08T11:46:53.782Z,67.30
2019-03-08T11:49:34.215Z,67.70
2019-03-08T11:52:21.185Z,68.10
2019-03-08T11:55:20.281Z,68.70
2019-03-08T11:58:25.639Z,68.40
2019-03-08T12:01:12.893Z,69.30
2019-03-08T12:03:58.437Z,68.30
2019-03-08T12:06:43.885Z,68.80
2019-03-08T12:09:49.244Z,67.80
2019-03-08T12:12:31.937Z,67.20
2019-03-08T12:15:18.872Z,66.30
2019-03-08T12:18:03.533Z,67.20
2019-03-08T12:20:49.478Z,66.90
2019-03-08T12:23:42.668Z,64.20
2019-03-08T12:26:28.131Z,62.00
2019-03-08T12:29:04.067Z,62.40
2019-03-08T12:31:49.278Z,63.40
2019-03-08T12:34:34.723Z,62.40
2019-03-08T12:37:10.555Z,61.20
2019-03-08T12:39:46.276Z,62.20
2019-03-08T12:42:35.756Z,61.90
2019-03-08T12:45:15.960Z,64.10
2019-03-08T12:48:03.125Z,64.20
2019-03-08T12:50:52.608Z,66.20
2019-03-08T12:53:30.465Z,67.30
2019-03-08T12:56:17.408Z,66.30
2019-03-08T12:59:02.448Z,66.30
2019-03-08T13:01:49.384Z,64.50
2019-03-08T13:04:54.176Z,64.20
2019-03-08T13:07:29.052Z,64.00
2019-03-08T13:10:08.040Z,64.90
2019-03-08T13:12:35.507Z,63.40
2019-03-08T13:15:03.985Z,63.20
2019-03-08T13:17:31.404Z,63.30
2019-03-08T13:19:58.847Z,64.90
2019-03-08T13:22:26.281Z,63.80
2019-03-08T13:24:53.709Z,62.80
2019-03-08T13:27:21.234Z,63.40
2019-03-08T13:29:48.563Z,62.40
2019-03-08T13:32:15.989Z,62.60
2019-03-08T13:34:43.448Z,61.80
2019-03-08T13:37:10.878Z,62.30
2019-03-08T13:39:38.297Z,61.30
2019-03-08T13:42:05.756Z,62.80
2019-03-08T13:44:33.186Z,61.20
2019-03-08T13:47:01.018Z,61.70
2019-03-08T13:49:28.474Z,60.80
2019-03-08T13:51:55.898Z,59.90
2019-03-08T13:54:23.331Z,60.80
2019-03-08T13:56:50.820Z,60.80
2019-03-08T13:59:18.252Z,60.60
2019-03-08T14:01:45.696Z,61.50
2019-03-08T14:04:13.348Z,61.30
2019-03-08T14:06:40.776Z,60.20
2019-03-08T14:09:08.208Z,61.50
2019-03-08T14:11:35.660Z,61.10
2019-03-08T14:14:03.101Z,60.30
2019-03-08T14:16:30.542Z,60.80
2019-03-08T14:18:57.988Z,60.40
2019-03-08T14:21:25.449Z,61.70
2019-03-08T14:23:52.868Z,62.90
2019-03-08T14:26:20.299Z,62.60
2019-03-08T14:28:47.824Z,62.50
2019-03-08T14:31:22.855Z,63.20
2019-03-08T14:33:50.513Z,63.30
2019-03-08T14:36:17.937Z,61.70
2019-03-08T14:38:45.396Z,60.10
2019-03-08T14:41:35.123Z,60.70
2019-03-08T14:44:10.396Z,61.90
2019-03-08T14:46:57.597Z,62.40
2019-03-08T14:49:25.088Z,62.60
2019-03-08T14:51:52.524Z,64.10
2019-03-08T14:54:20.415Z,63.30
2019-03-08T14:56:47.852Z,64.90
2019-03-08T14:59:16.580Z,63.00
2019-03-08T15:01:44.367Z,63.20
2019-03-08T15:04:11.817Z,63.70
2019-03-08T15:06:39.236Z,64.20
2019-03-08T15:09:10.297Z,63.80
2019-03-08T15:11:37.714Z,63.50
2019-03-08T15:14:05.052Z,61.20
2019-03-08T15:16:35.282Z,60.10
2019-03-08T15:19:03.750Z,60.90
2019-03-08T15:21:33.208Z,60.60
2019-03-08T15:24:00.256Z,61.50
2019-03-08T15:26:28.024Z,61.80
2019-03-08T15:28:55.460Z,62.20
2019-03-08T15:31:22.932Z,62.20
2019-03-08T15:33:50.252Z,63.50
2019-03-08T15:36:17.489Z,63.20
2019-03-08T15:38:44.392Z,63.90
2019-03-08T15:41:11.836Z,64.80
2019-03-08T15:43:39.177Z,63.20
2019-03-08T15:46:06.546Z,63.20
2019-03-08T15:48:34.016Z,63.40
2019-03-08T15:51:01.420Z,63.60
2019-03-08T15:53:28.881Z,64.40
2019-03-08T15:55:56.429Z,65.00
2019-03-08T15:58:23.993Z,66.00
2019-03-08T16:00:51.936Z,65.50
2019-03-08T16:03:19.536Z,65.50
2019-03-08T16:05:46.981Z,66.40
2019-03-08T16:08:14.414Z,66.70
2019-03-08T16:10:41.872Z,66.30
2019-03-08T16:13:09.294Z,67.00
2019-03-08T16:15:37.932Z,66.00
2019-03-08T16:18:05.320Z,66.20
2019-03-08T16:20:32.768Z,64.00
2019-03-08T16:23:02.690Z,62.20
2019-03-08T16:25:29.466Z,61.50
2019-03-08T16:27:56.900Z,61.30
2019-03-08T16:30:29.972Z,61.60
2019-03-08T16:33:06.518Z,60.50
2019-03-08T16:35:49.124Z,61.10
2019-03-08T16:38:31.938Z,60.60
2019-03-08T16:41:24.743Z,61.30
2019-03-08T16:44:03.215Z,61.20
2019-03-08T16:46:59.221Z,61.80
2019-03-08T16:49:48.161Z,61.70
2019-03-08T16:52:43.423Z,62.50
2019-03-08T16:55:24.211Z,62.30
2019-03-08T16:58:17.733Z,61.90
2019-03-08T17:01:13.803Z,61.20
2019-03-08T17:03:49.365Z,61.70
2019-03-08T17:06:28.670Z,60.90
2019-03-08T17:09:02.169Z,61.80
2019-03-08T17:11:39.001Z,61.30
2019-03-08T17:14:24.753Z,62.10
2019-03-08T17:17:01.841Z,62.20
2019-03-08T17:19:49.207Z,62.80
2019-03-08T17:22:35.265Z,63.60
2019-03-08T17:25:26.207Z,63.10
2019-03-08T17:28:25.284Z,63.30
2019-03-08T17:31:09.740Z,63.40
2019-03-08T17:34:05.749Z,62.60
2019-03-08T17:36:55.694Z,62.70
2019-03-08T17:39:35.746Z,63.30
2019-03-08T17:42:17.622Z,62.80
2019-03-08T17:44:53.647Z,64.30
2019-03-08T17:47:41.001Z,63.60
2019-03-08T17:50:17.319Z,63.60
2019-03-08T17:53:04.624Z,64.20
2019-03-08T17:56:07.276Z,63.90
2019-03-08T17:58:53.400Z,64.60
2019-03-08T18:01:43.871Z,65.10
2019-03-08T18:04:32.948Z,65.10
2019-03-08T18:07:38.716Z,65.80
2019-03-08T18:10:27.975Z,66.00
2019-03-08T18:13:21.444Z,66.60
2019-03-08T18:16:11.461Z,66.40
2019-03-08T18:18:58.618Z,67.40
2019-03-08T18:21:40.049Z,67.70
2019-03-08T18:24:23.768Z,67.90
2019-03-08T18:27:12.605Z,67.40
2019-03-08T18:29:55.677Z,67.30
2019-03-08T18:32:46.523Z,67.40
2019-03-08T18:35:32.304Z,67.70
2019-03-08T18:38:22.499Z,67.60
2019-03-08T18:41:10.863Z,68.30
2019-03-08T18:44:06.133Z,68.60
2019-03-08T18:46:53.273Z,68.50
2019-03-08T18:49:38.844Z,68.50
2019-03-08T18:52:35.280Z,70.20
2019-03-08T18:55:13.736Z,69.40
2019-03-08T18:58:06.463Z,70.00
2019-03-08T19:00:44.079Z,70.00
2019-03-08T19:03:29.412Z,71.30
2019-03-08T19:06:04.808Z,71.00
2019-03-08T19:08:43.624Z,72.40
2019-03-08T19:11:33.364Z,70.70
2019-03-08T19:14:32.033Z,71.10
2019-03-08T19:17:17.684Z,71.70
2019-03-08T19:20:04.650Z,71.90
2019-03-08T19:22:54.478Z,72.10
2019-03-08T19:25:40.063Z,72.50
2019-03-08T19:28:25.316Z,72.40
2019-03-08T19:31:18.180Z,72.50
2019-03-08T19:34:08.440Z,72.30
2019-03-08T19:36:55.479Z,74.00
2019-03-08T19:39:48.048Z,73.00
2019-03-08T19:42:20.295Z,73.50
2019-03-08T19:44:58.593Z,74.70
2019-03-08T19:47:44.234Z,74.90
2019-03-08T19:50:31.285Z,76.90
2019-03-08T19:53:20.843Z,78.70
2019-03-08T19:56:12.680Z,79.50
2019-03-08T19:58:49.183Z,81.20
2019-03-08T20:01:51.584Z,80.50
2019-03-08T20:04:31.388Z,81.80
2019-03-08T20:07:12.951Z,81.80
2019-03-08T20:09:54.869Z,82.20
2019-03-08T20:12:36.348Z,82.20
2019-03-08T20:15:19.170Z,82.10
2019-03-08T20:18:04.842Z,82.60
2019-03-08T20:20:39.171Z,81.70
2019-03-08T20:23:24.766Z,79.80
2019-03-08T20:26:17.392Z,81.30
2019-03-08T20:28:59.292Z,80.40
2019-03-08T20:31:53.405Z,80.60
2019-03-08T20:34:43.124Z,80.90
2019-03-08T20:37:19.552Z,80.70
2019-03-08T20:40:04.080Z,80.90
2019-03-08T20:42:51.754Z,80.80
2019-03-08T20:45:27.144Z,80.60
2019-03-08T20:47:54.716Z,79.90
2019-03-08T20:50:22.154Z,79.70
2019-03-08T20:52:49.684Z,78.50
2019-03-08T20:55:17.140Z,78.60
2019-03-08T20:57:44.585Z,79.00
2019-03-08T21:00:12.544Z,79.20
2019-03-08T21:02:39.784Z,79.30
2019-03-08T21:05:06.927Z,79.30
2019-03-08T21:07:34.368Z,79.80
2019-03-08T21:10:01.947Z,79.60
2019-03-08T21:12:29.528Z,79.60
2019-03-08T21:14:56.978Z,79.90
2019-03-08T21:17:24.417Z,79.90
2019-03-08T21:19:51.783Z,79.80
2019-03-08T21:22:19.287Z,80.20
2019-03-08T21:24:46.450Z,81.40
2019-03-08T21:27:13.808Z,82.20
2019-03-08T21:29:41.260Z,82.70
2019-03-08T21:32:08.692Z,82.50
2019-03-08T21:34:36.157Z,82.40
2019-03-08T21:37:03.600Z,82.00
2019-03-08T21:39:31.060Z,81.90
2019-03-08T21:41:58.528Z,80.90
2019-03-08T21:44:25.868Z,81.70
2019-03-08T21:46:53.353Z,81.10
2019-03-08T21:49:20.824Z,80.60
2019-03-08T21:51:48.316Z,80.70
2019-03-08T21:54:17.159Z,80.50
2019-03-08T21:56:44.307Z,81.30
2019-03-08T21:59:11.235Z,80.70
2019-03-08T22:01:38.685Z,80.70
2019-03-08T22:04:11.921Z,80.00
2019-03-08T22:06:39.355Z,80.30
2019-03-08T22:09:32.441Z,79.90
2019-03-08T22:11:59.902Z,79.50
2019-03-08T22:14:27.148Z,79.80
2019-03-08T22:16:54.079Z,80.80
2019-03-08T22:19:21.569Z,79.60
2019-03-08T22:21:49.006Z,79.40
2019-03-08T22:24:16.641Z,79.70
2019-03-08T22:26:45.616Z,79.00
2019-03-08T22:29:13.056Z,79.90
2019-03-08T22:31:40.521Z,78.30
2019-03-08T22:34:07.799Z,78.10
2019-03-08T22:36:34.693Z,78.40
2019-03-08T22:39:02.375Z,78.70
2019-03-08T22:41:29.837Z,78.10
2019-03-08T22:43:57.190Z,78.70
2019-03-08T22:46:24.623Z,78.80
2019-03-08T22:48:51.993Z,79.90
2019-03-08T22:51:19.506Z,80.10
2019-03-08T22:53:47.042Z,80.10
2019-03-08T22:56:14.270Z,80.30
2019-03-08T22:58:41.183Z,81.50
2019-03-08T23:01:15.463Z,83.40
2019-03-08T23:03:42.912Z,83.10
2019-03-08T23:06:10.248Z,84.60
2019-03-08T23:08:37.690Z,84.80
2019-03-08T23:11:05.157Z,85.00
2019-03-08T23:13:32.638Z,85.10
2019-03-08T23:16:00.064Z,85.20
2019-03-08T23:18:27.558Z,86.00
2019-03-08T23:20:55.345Z,86.10
2019-03-08T23:23:22.784Z,86.40
2019-03-08T23:25:50.260Z,88.00
2019-03-08T23:28:32.574Z,88.10
2019-03-08T23:31:04.528Z,87.80
2019-03-08T23:33:31.988Z,88.80
2019-03-08T23:35:59.424Z,89.00
2019-03-08T23:38:26.852Z,89.20
2019-03-08T23:40:54.408Z,89.00
2019-03-08T23:43:21.869Z,89.50
2019-03-08T23:45:49.670Z,89.50
2019-03-08T23:48:17.156Z,89.80
2019-03-08T23:50:44.606Z,90.20
2019-03-08T23:53:12.051Z,90.10
2019-03-08T23:55:39.514Z,90.20
2019-03-08T23:58:06.944Z,90.20
